sensor_id;sensor_type;location;lat;lon;timestamp;P1;durP1;ratioP1;P2;durP2;ratioP2
13439;SDS011;6792;57.698;11.946;2023-09-18T00:00:15;3.15;;;2.47;;
13439;SDS011;6792;57.698;11.946;2023-09-18T00:02:44;3.20;;;2.90;;
13439;SDS011;6792;57.698;11.946;2023-09-18T00:05:13;3.00;;;2.70;;
13439;SDS011;6792;57.698;11.946;2023-09-18T00:07:43;3.62;;;2.72;;
13439;SDS011;6792;57.698;11.946;2023-09-18T00:10:12;4.00;;;2.37;;
13439;SDS011;6792;57.698;11.946;2023-09-18T00:12:41;4.58;;;2.77;;
13439;SDS011;6792;57.698;11.946;2023-09-18T00:15:10;3.00;;;2.42;;
13439;SDS011;6792;57.698;11.946;2023-09-18T00:17:39;4.08;;;3.00;;
13439;SDS011;6792;57.698;11.946;2023-09-18T00:20:09;2.67;;;2.47;;
13439;SDS011;6792;57.698;11.946;2023-09-18T00:22:40;2.98;;;2.62;;
13439;SDS011;6792;57.698;11.946;2023-09-18T00:27:58;3.60;;;2.70;;
13439;SDS011;6792;57.698;11.946;2023-09-18T00:30:28;3.20;;;2.50;;
13439;SDS011;6792;57.698;11.946;2023-09-18T00:32:57;3.10;;;2.60;;
13439;SDS011;6792;57.698;11.946;2023-09-18T00:35:26;2.80;;;2.58;;
13439;SDS011;6792;57.698;11.946;2023-09-18T00:37:55;5.05;;;2.92;;
13439;SDS011;6792;57.698;11.946;2023-09-18T00:40:24;3.58;;;2.87;;
13439;SDS011;6792;57.698;11.946;2023-09-18T00:42:53;2.67;;;2.47;;
13439;SDS011;6792;57.698;11.946;2023-09-18T00:45:22;3.08;;;2.60;;
13439;SDS011;6792;57.698;11.946;2023-09-18T00:47:51;3.85;;;2.55;;
13439;SDS011;6792;57.698;11.946;2023-09-18T00:50:21;3.72;;;2.90;;
13439;SDS011;6792;57.698;11.946;2023-09-18T00:52:51;3.33;;;2.33;;
13439;SDS011;6792;57.698;11.946;2023-09-18T00:55:28;3.65;;;2.70;;
13439;SDS011;6792;57.698;11.946;2023-09-18T00:58:00;3.10;;;2.60;;
13439;SDS011;6792;57.698;11.946;2023-09-18T01:00:29;4.85;;;2.58;;
13439;SDS011;6792;57.698;11.946;2023-09-18T01:02:57;3.62;;;2.52;;
13439;SDS011;6792;57.698;11.946;2023-09-18T01:05:28;4.03;;;2.45;;
13439;SDS011;6792;57.698;11.946;2023-09-18T01:07:58;2.50;;;2.30;;
13439;SDS011;6792;57.698;11.946;2023-09-18T01:10:28;2.47;;;2.10;;
13439;SDS011;6792;57.698;11.946;2023-09-18T01:15:51;2.60;;;2.40;;
13439;SDS011;6792;57.698;11.946;2023-09-18T01:18:21;2.30;;;2.10;;
13439;SDS011;6792;57.698;11.946;2023-09-18T01:20:50;2.15;;;2.02;;
13439;SDS011;6792;57.698;11.946;2023-09-18T01:23:19;2.45;;;2.27;;
13439;SDS011;6792;57.698;11.946;2023-09-18T01:25:48;3.65;;;2.10;;
13439;SDS011;6792;57.698;11.946;2023-09-18T01:28:17;2.37;;;1.98;;
13439;SDS011;6792;57.698;11.946;2023-09-18T01:30:46;2.52;;;2.30;;
13439;SDS011;6792;57.698;11.946;2023-09-18T01:33:15;2.27;;;2.08;;
13439;SDS011;6792;57.698;11.946;2023-09-18T01:35:45;2.83;;;2.12;;
13439;SDS011;6792;57.698;11.946;2023-09-18T01:38:15;2.52;;;2.12;;
13439;SDS011;6792;57.698;11.946;2023-09-18T01:40:44;3.77;;;2.30;;
13439;SDS011;6792;57.698;11.946;2023-09-18T01:43:13;3.65;;;1.95;;
13439;SDS011;6792;57.698;11.946;2023-09-18T01:48:21;3.40;;;2.30;;
13439;SDS011;6792;57.698;11.946;2023-09-18T01:50:50;2.47;;;2.17;;
13439;SDS011;6792;57.698;11.946;2023-09-18T01:53:20;4.25;;;2.45;;
13439;SDS011;6792;57.698;11.946;2023-09-18T01:55:49;2.40;;;2.20;;
13439;SDS011;6792;57.698;11.946;2023-09-18T01:58:18;2.60;;;1.98;;
13439;SDS011;6792;57.698;11.946;2023-09-18T02:00:47;2.20;;;1.87;;
13439;SDS011;6792;57.698;11.946;2023-09-18T02:03:16;2.62;;;2.22;;
13439;SDS011;6792;57.698;11.946;2023-09-18T02:05:46;4.05;;;2.20;;
13439;SDS011;6792;57.698;11.946;2023-09-18T02:08:16;2.40;;;2.20;;
13439;SDS011;6792;57.698;11.946;2023-09-18T02:10:45;2.30;;;2.10;;
13439;SDS011;6792;57.698;11.946;2023-09-18T02:13:14;3.33;;;2.42;;
13439;SDS011;6792;57.698;11.946;2023-09-18T02:15:44;2.75;;;2.15;;
13439;SDS011;6792;57.698;11.946;2023-09-18T02:18:13;2.45;;;2.10;;
13439;SDS011;6792;57.698;11.946;2023-09-18T02:20:42;2.42;;;2.10;;
13439;SDS011;6792;57.698;11.946;2023-09-18T02:23:13;2.52;;;2.22;;
13439;SDS011;6792;57.698;11.946;2023-09-18T02:25:42;4.17;;;2.42;;
13439;SDS011;6792;57.698;11.946;2023-09-18T02:28:11;2.80;;;2.20;;
13439;SDS011;6792;57.698;11.946;2023-09-18T02:30:41;3.42;;;2.25;;
13439;SDS011;6792;57.698;11.946;2023-09-18T02:33:10;2.95;;;2.08;;
13439;SDS011;6792;57.698;11.946;2023-09-18T02:35:40;2.45;;;1.90;;
13439;SDS011;6792;57.698;11.946;2023-09-18T02:38:10;2.30;;;2.02;;
13439;SDS011;6792;57.698;11.946;2023-09-18T02:40:39;2.58;;;1.80;;
13439;SDS011;6792;57.698;11.946;2023-09-18T02:43:08;1.98;;;1.80;;
13439;SDS011;6792;57.698;11.946;2023-09-18T02:45:37;2.72;;;2.10;;
13439;SDS011;6792;57.698;11.946;2023-09-18T02:48:07;2.08;;;1.98;;
13439;SDS011;6792;57.698;11.946;2023-09-18T02:50:36;2.10;;;1.90;;
13439;SDS011;6792;57.698;11.946;2023-09-18T02:53:05;3.60;;;1.90;;
13439;SDS011;6792;57.698;11.946;2023-09-18T02:55:35;3.20;;;1.90;;
13439;SDS011;6792;57.698;11.946;2023-09-18T02:58:04;3.55;;;2.20;;
13439;SDS011;6792;57.698;11.946;2023-09-18T03:00:40;3.65;;;1.87;;
13439;SDS011;6792;57.698;11.946;2023-09-18T03:03:09;3.67;;;2.05;;
13439;SDS011;6792;57.698;11.946;2023-09-18T03:05:39;3.10;;;2.08;;
13439;SDS011;6792;57.698;11.946;2023-09-18T03:08:09;2.35;;;2.15;;
13439;SDS011;6792;57.698;11.946;2023-09-18T03:10:39;2.40;;;1.90;;
13439;SDS011;6792;57.698;11.946;2023-09-18T03:13:09;2.52;;;2.00;;
13439;SDS011;6792;57.698;11.946;2023-09-18T03:15:41;2.20;;;2.00;;
13439;SDS011;6792;57.698;11.946;2023-09-18T03:18:14;3.50;;;2.00;;
13439;SDS011;6792;57.698;11.946;2023-09-18T03:20:43;2.00;;;1.80;;
13439;SDS011;6792;57.698;11.946;2023-09-18T03:23:12;2.42;;;1.77;;
13439;SDS011;6792;57.698;11.946;2023-09-18T03:25:41;3.08;;;2.00;;
13439;SDS011;6792;57.698;11.946;2023-09-18T03:28:10;2.58;;;2.02;;
13439;SDS011;6792;57.698;11.946;2023-09-18T03:30:39;6.80;;;2.00;;
13439;SDS011;6792;57.698;11.946;2023-09-18T03:33:09;2.27;;;2.08;;
13439;SDS011;6792;57.698;11.946;2023-09-18T03:35:45;4.20;;;2.00;;
13439;SDS011;6792;57.698;11.946;2023-09-18T03:38:14;2.33;;;2.12;;
13439;SDS011;6792;57.698;11.946;2023-09-18T03:40:43;3.90;;;2.00;;
13439;SDS011;6792;57.698;11.946;2023-09-18T03:43:13;4.65;;;1.87;;
13439;SDS011;6792;57.698;11.946;2023-09-18T03:45:42;2.00;;;1.75;;
13439;SDS011;6792;57.698;11.946;2023-09-18T03:48:11;3.42;;;2.40;;
13439;SDS011;6792;57.698;11.946;2023-09-18T03:50:40;2.72;;;2.00;;
13439;SDS011;6792;57.698;11.946;2023-09-18T03:53:10;3.37;;;2.10;;
13439;SDS011;6792;57.698;11.946;2023-09-18T03:55:38;4.12;;;1.95;;
13439;SDS011;6792;57.698;11.946;2023-09-18T03:58:07;4.10;;;1.95;;
13439;SDS011;6792;57.698;11.946;2023-09-18T04:00:37;3.25;;;1.90;;
13439;SDS011;6792;57.698;11.946;2023-09-18T04:03:06;2.40;;;1.85;;
13439;SDS011;6792;57.698;11.946;2023-09-18T04:05:35;3.17;;;1.82;;
13439;SDS011;6792;57.698;11.946;2023-09-18T04:08:05;2.25;;;2.05;;
13439;SDS011;6792;57.698;11.946;2023-09-18T04:10:34;3.12;;;1.98;;
13439;SDS011;6792;57.698;11.946;2023-09-18T04:13:03;3.47;;;2.12;;
13439;SDS011;6792;57.698;11.946;2023-09-18T04:15:33;2.33;;;1.80;;
13439;SDS011;6792;57.698;11.946;2023-09-18T04:18:04;2.22;;;2.00;;
13439;SDS011;6792;57.698;11.946;2023-09-18T04:20:33;1.80;;;1.62;;
13439;SDS011;6792;57.698;11.946;2023-09-18T04:23:23;2.95;;;1.87;;
13439;SDS011;6792;57.698;11.946;2023-09-18T04:25:53;2.70;;;2.27;;
13439;SDS011;6792;57.698;11.946;2023-09-18T04:28:24;3.27;;;1.72;;
13439;SDS011;6792;57.698;11.946;2023-09-18T04:30:53;2.50;;;2.00;;
13439;SDS011;6792;57.698;11.946;2023-09-18T04:33:22;2.95;;;1.60;;
13439;SDS011;6792;57.698;11.946;2023-09-18T04:35:52;5.00;;;2.00;;
13439;SDS011;6792;57.698;11.946;2023-09-18T04:38:21;3.60;;;2.20;;
13439;SDS011;6792;57.698;11.946;2023-09-18T04:40:56;2.42;;;1.70;;
13439;SDS011;6792;57.698;11.946;2023-09-18T04:43:25;2.70;;;1.90;;
13439;SDS011;6792;57.698;11.946;2023-09-18T04:45:56;4.08;;;1.75;;
13439;SDS011;6792;57.698;11.946;2023-09-18T04:48:25;2.75;;;1.87;;
13439;SDS011;6792;57.698;11.946;2023-09-18T04:50:55;2.92;;;1.80;;
13439;SDS011;6792;57.698;11.946;2023-09-18T04:53:24;2.50;;;1.72;;
13439;SDS011;6792;57.698;11.946;2023-09-18T04:55:55;2.08;;;1.87;;
13439;SDS011;6792;57.698;11.946;2023-09-18T04:58:24;3.70;;;2.10;;
13439;SDS011;6792;57.698;11.946;2023-09-18T05:00:54;2.35;;;1.92;;
13439;SDS011;6792;57.698;11.946;2023-09-18T05:03:23;3.42;;;2.00;;
13439;SDS011;6792;57.698;11.946;2023-09-18T05:05:55;2.70;;;1.80;;
13439;SDS011;6792;57.698;11.946;2023-09-18T05:08:24;3.25;;;1.80;;
13439;SDS011;6792;57.698;11.946;2023-09-18T05:10:53;3.65;;;1.95;;
13439;SDS011;6792;57.698;11.946;2023-09-18T05:13:24;3.95;;;1.90;;
13439;SDS011;6792;57.698;11.946;2023-09-18T05:15:53;2.85;;;1.60;;
13439;SDS011;6792;57.698;11.946;2023-09-18T05:18:24;4.17;;;2.58;;
13439;SDS011;6792;57.698;11.946;2023-09-18T05:20:54;4.28;;;1.70;;
13439;SDS011;6792;57.698;11.946;2023-09-18T05:23:23;3.40;;;1.95;;
13439;SDS011;6792;57.698;11.946;2023-09-18T05:25:52;3.27;;;1.90;;
13439;SDS011;6792;57.698;11.946;2023-09-18T05:28:21;2.47;;;2.00;;
13439;SDS011;6792;57.698;11.946;2023-09-18T05:30:50;5.55;;;1.90;;
13439;SDS011;6792;57.698;11.946;2023-09-18T05:33:19;4.55;;;2.15;;
13439;SDS011;6792;57.698;11.946;2023-09-18T05:35:49;1.77;;;1.62;;
13439;SDS011;6792;57.698;11.946;2023-09-18T05:38:20;3.47;;;2.00;;
13439;SDS011;6792;57.698;11.946;2023-09-18T05:40:49;5.78;;;2.10;;
13439;SDS011;6792;57.698;11.946;2023-09-18T05:43:18;4.45;;;2.08;;
13439;SDS011;6792;57.698;11.946;2023-09-18T05:45:47;4.90;;;2.10;;
13439;SDS011;6792;57.698;11.946;2023-09-18T05:48:17;1.70;;;1.60;;
13439;SDS011;6792;57.698;11.946;2023-09-18T05:50:46;1.87;;;1.65;;
13439;SDS011;6792;57.698;11.946;2023-09-18T05:53:15;2.55;;;1.72;;
13439;SDS011;6792;57.698;11.946;2023-09-18T05:58:31;5.83;;;1.80;;
13439;SDS011;6792;57.698;11.946;2023-09-18T06:01:01;1.72;;;1.62;;
13439;SDS011;6792;57.698;11.946;2023-09-18T06:03:30;3.58;;;1.57;;
13439;SDS011;6792;57.698;11.946;2023-09-18T06:06:01;3.12;;;1.82;;
13439;SDS011;6792;57.698;11.946;2023-09-18T06:08:30;1.85;;;1.70;;
13439;SDS011;6792;57.698;11.946;2023-09-18T06:10:59;2.35;;;1.52;;
13439;SDS011;6792;57.698;11.946;2023-09-18T06:13:28;3.33;;;1.92;;
13439;SDS011;6792;57.698;11.946;2023-09-18T06:16:00;2.00;;;1.80;;
13439;SDS011;6792;57.698;11.946;2023-09-18T06:18:31;4.05;;;2.00;;
13439;SDS011;6792;57.698;11.946;2023-09-18T06:21:01;2.17;;;1.70;;
13439;SDS011;6792;57.698;11.946;2023-09-18T06:23:31;3.12;;;1.82;;
13439;SDS011;6792;57.698;11.946;2023-09-18T06:26:00;2.80;;;1.70;;
13439;SDS011;6792;57.698;11.946;2023-09-18T06:28:32;5.90;;;1.95;;
13439;SDS011;6792;57.698;11.946;2023-09-18T06:31:01;3.42;;;1.60;;
13439;SDS011;6792;57.698;11.946;2023-09-18T06:33:30;4.95;;;2.08;;
13439;SDS011;6792;57.698;11.946;2023-09-18T06:35:59;3.50;;;1.77;;
13439;SDS011;6792;57.698;11.946;2023-09-18T06:38:28;2.77;;;1.77;;
13439;SDS011;6792;57.698;11.946;2023-09-18T06:40:57;2.62;;;1.50;;
13439;SDS011;6792;57.698;11.946;2023-09-18T06:43:26;1.70;;;1.60;;
13439;SDS011;6792;57.698;11.946;2023-09-18T06:45:55;1.75;;;1.55;;
13439;SDS011;6792;57.698;11.946;2023-09-18T06:48:24;1.70;;;1.60;;
13439;SDS011;6792;57.698;11.946;2023-09-18T06:50:55;2.50;;;1.95;;
13439;SDS011;6792;57.698;11.946;2023-09-18T06:53:24;3.72;;;2.02;;
13439;SDS011;6792;57.698;11.946;2023-09-18T06:55:54;2.20;;;1.65;;
13439;SDS011;6792;57.698;11.946;2023-09-18T06:58:23;2.35;;;1.70;;
13439;SDS011;6792;57.698;11.946;2023-09-18T07:00:52;3.45;;;1.62;;
13439;SDS011;6792;57.698;11.946;2023-09-18T07:03:35;3.33;;;1.82;;
13439;SDS011;6792;57.698;11.946;2023-09-18T07:06:05;5.05;;;1.70;;
13439;SDS011;6792;57.698;11.946;2023-09-18T07:08:35;1.80;;;1.50;;
13439;SDS011;6792;57.698;11.946;2023-09-18T07:11:04;4.25;;;1.60;;
13439;SDS011;6792;57.698;11.946;2023-09-18T07:13:33;3.65;;;1.72;;
13439;SDS011;6792;57.698;11.946;2023-09-18T07:16:03;5.47;;;1.77;;
13439;SDS011;6792;57.698;11.946;2023-09-18T07:18:33;4.67;;;1.60;;
13439;SDS011;6792;57.698;11.946;2023-09-18T07:21:02;2.70;;;1.40;;
13439;SDS011;6792;57.698;11.946;2023-09-18T07:23:31;1.80;;;1.30;;
13439;SDS011;6792;57.698;11.946;2023-09-18T07:26:01;1.98;;;1.60;;
13439;SDS011;6792;57.698;11.946;2023-09-18T07:28:30;3.62;;;1.70;;
13439;SDS011;6792;57.698;11.946;2023-09-18T07:31:04;1.92;;;1.60;;
13439;SDS011;6792;57.698;11.946;2023-09-18T07:33:35;2.40;;;1.55;;
13439;SDS011;6792;57.698;11.946;2023-09-18T07:36:03;8.18;;;1.47;;
13439;SDS011;6792;57.698;11.946;2023-09-18T07:38:32;2.55;;;1.87;;
13439;SDS011;6792;57.698;11.946;2023-09-18T07:41:01;2.60;;;1.32;;
13439;SDS011;6792;57.698;11.946;2023-09-18T07:43:30;2.33;;;1.20;;
13439;SDS011;6792;57.698;11.946;2023-09-18T07:46:00;2.92;;;1.40;;
13439;SDS011;6792;57.698;11.946;2023-09-18T07:48:29;2.60;;;1.57;;
13439;SDS011;6792;57.698;11.946;2023-09-18T07:50:58;2.25;;;1.42;;
13439;SDS011;6792;57.698;11.946;2023-09-18T07:53:27;3.85;;;1.40;;
13439;SDS011;6792;57.698;11.946;2023-09-18T07:55:56;3.15;;;1.70;;
13439;SDS011;6792;57.698;11.946;2023-09-18T07:58:26;1.52;;;1.30;;
13439;SDS011;6792;57.698;11.946;2023-09-18T08:00:55;1.55;;;1.25;;
13439;SDS011;6792;57.698;11.946;2023-09-18T08:03:25;3.55;;;1.60;;
13439;SDS011;6792;57.698;11.946;2023-09-18T08:05:55;1.60;;;1.50;;
13439;SDS011;6792;57.698;11.946;2023-09-18T08:08:24;1.95;;;1.47;;
13439;SDS011;6792;57.698;11.946;2023-09-18T08:10:53;1.80;;;1.50;;
13439;SDS011;6792;57.698;11.946;2023-09-18T08:13:33;2.37;;;1.40;;
13439;SDS011;6792;57.698;11.946;2023-09-18T08:16:05;2.67;;;1.67;;
13439;SDS011;6792;57.698;11.946;2023-09-18T08:18:34;2.27;;;1.55;;
13439;SDS011;6792;57.698;11.946;2023-09-18T08:21:04;2.25;;;1.37;;
13439;SDS011;6792;57.698;11.946;2023-09-18T08:23:35;4.22;;;1.67;;
13439;SDS011;6792;57.698;11.946;2023-09-18T08:26:04;1.65;;;1.50;;
13439;SDS011;6792;57.698;11.946;2023-09-18T08:28:34;1.60;;;1.50;;
13439;SDS011;6792;57.698;11.946;2023-09-18T08:31:04;1.37;;;1.27;;
13439;SDS011;6792;57.698;11.946;2023-09-18T08:33:33;3.75;;;1.90;;
13439;SDS011;6792;57.698;11.946;2023-09-18T08:36:02;5.60;;;1.45;;
13439;SDS011;6792;57.698;11.946;2023-09-18T08:38:31;5.00;;;1.52;;
13439;SDS011;6792;57.698;11.946;2023-09-18T08:41:01;3.08;;;1.75;;
13439;SDS011;6792;57.698;11.946;2023-09-18T08:43:31;4.15;;;1.90;;
13439;SDS011;6792;57.698;11.946;2023-09-18T08:46:01;1.75;;;1.62;;
13439;SDS011;6792;57.698;11.946;2023-09-18T08:48:30;2.70;;;1.67;;
13439;SDS011;6792;57.698;11.946;2023-09-18T08:51:03;2.58;;;1.55;;
13439;SDS011;6792;57.698;11.946;2023-09-18T08:53:34;2.47;;;1.80;;
13439;SDS011;6792;57.698;11.946;2023-09-18T08:56:04;2.83;;;1.60;;
13439;SDS011;6792;57.698;11.946;2023-09-18T08:58:34;6.45;;;2.00;;
13439;SDS011;6792;57.698;11.946;2023-09-18T09:01:06;3.75;;;1.77;;
13439;SDS011;6792;57.698;11.946;2023-09-18T09:03:36;3.90;;;1.70;;
13439;SDS011;6792;57.698;11.946;2023-09-18T09:06:06;2.67;;;2.20;;
13439;SDS011;6792;57.698;11.946;2023-09-18T09:08:36;1.80;;;1.70;;
13439;SDS011;6792;57.698;11.946;2023-09-18T09:11:05;3.67;;;1.90;;
13439;SDS011;6792;57.698;11.946;2023-09-18T09:13:35;1.90;;;1.52;;
13439;SDS011;6792;57.698;11.946;2023-09-18T09:16:04;3.40;;;2.05;;
13439;SDS011;6792;57.698;11.946;2023-09-18T09:18:33;3.08;;;2.08;;
13439;SDS011;6792;57.698;11.946;2023-09-18T09:21:02;2.85;;;1.67;;
13439;SDS011;6792;57.698;11.946;2023-09-18T09:23:45;3.50;;;1.82;;
13439;SDS011;6792;57.698;11.946;2023-09-18T09:26:18;3.98;;;2.17;;
13439;SDS011;6792;57.698;11.946;2023-09-18T09:28:48;3.33;;;2.15;;
13439;SDS011;6792;57.698;11.946;2023-09-18T09:31:24;2.47;;;2.27;;
13439;SDS011;6792;57.698;11.946;2023-09-18T09:33:55;4.20;;;2.40;;
13439;SDS011;6792;57.698;11.946;2023-09-18T09:36:24;3.72;;;2.50;;
13439;SDS011;6792;57.698;11.946;2023-09-18T09:38:55;6.20;;;2.55;;
13439;SDS011;6792;57.698;11.946;2023-09-18T09:41:24;5.08;;;2.70;;
13439;SDS011;6792;57.698;11.946;2023-09-18T09:43:54;5.05;;;2.45;;
13439;SDS011;6792;57.698;11.946;2023-09-18T09:46:23;13.55;;;2.90;;
13439;SDS011;6792;57.698;11.946;2023-09-18T09:49:00;4.53;;;3.08;;
13439;SDS011;6792;57.698;11.946;2023-09-18T09:51:31;3.17;;;2.77;;
13439;SDS011;6792;57.698;11.946;2023-09-18T09:54:01;3.98;;;2.58;;
13439;SDS011;6792;57.698;11.946;2023-09-18T09:56:40;4.15;;;2.83;;
13439;SDS011;6792;57.698;11.946;2023-09-18T09:59:11;4.40;;;2.70;;
13439;SDS011;6792;57.698;11.946;2023-09-18T10:01:42;3.52;;;2.55;;
13439;SDS011;6792;57.698;11.946;2023-09-18T10:04:15;5.53;;;3.12;;
13439;SDS011;6792;57.698;11.946;2023-09-18T10:06:51;3.60;;;2.83;;
13439;SDS011;6792;57.698;11.946;2023-09-18T10:09:25;3.45;;;2.72;;
13439;SDS011;6792;57.698;11.946;2023-09-18T10:11:56;3.55;;;3.10;;
13439;SDS011;6792;57.698;11.946;2023-09-18T10:14:29;3.60;;;3.30;;
13439;SDS011;6792;57.698;11.946;2023-09-18T10:17:02;3.27;;;2.92;;
13439;SDS011;6792;57.698;11.946;2023-09-18T10:19:37;9.80;;;3.67;;
13439;SDS011;6792;57.698;11.946;2023-09-18T10:22:09;4.58;;;3.37;;
13439;SDS011;6792;57.698;11.946;2023-09-18T10:24:40;5.22;;;3.33;;
13439;SDS011;6792;57.698;11.946;2023-09-18T10:27:13;5.25;;;4.22;;
13439;SDS011;6792;57.698;11.946;2023-09-18T10:29:45;4.42;;;3.17;;
13439;SDS011;6792;57.698;11.946;2023-09-18T10:32:17;4.40;;;3.35;;
13439;SDS011;6792;57.698;11.946;2023-09-18T10:34:47;6.25;;;3.42;;
13439;SDS011;6792;57.698;11.946;2023-09-18T10:37:16;3.90;;;2.90;;
13439;SDS011;6792;57.698;11.946;2023-09-18T10:39:47;5.25;;;3.17;;
13439;SDS011;6792;57.698;11.946;2023-09-18T10:42:18;3.67;;;3.30;;
13439;SDS011;6792;57.698;11.946;2023-09-18T10:44:49;5.55;;;3.30;;
13439;SDS011;6792;57.698;11.946;2023-09-18T10:47:18;5.80;;;3.92;;
13439;SDS011;6792;57.698;11.946;2023-09-18T10:49:48;5.72;;;3.50;;
13439;SDS011;6792;57.698;11.946;2023-09-18T10:52:17;5.80;;;3.20;;
13439;SDS011;6792;57.698;11.946;2023-09-18T10:54:46;5.45;;;3.30;;
13439;SDS011;6792;57.698;11.946;2023-09-18T10:57:15;4.40;;;3.67;;
13439;SDS011;6792;57.698;11.946;2023-09-18T10:59:44;6.35;;;3.72;;
13439;SDS011;6792;57.698;11.946;2023-09-18T11:02:14;6.17;;;3.35;;
13439;SDS011;6792;57.698;11.946;2023-09-18T11:04:44;5.22;;;3.42;;
13439;SDS011;6792;57.698;11.946;2023-09-18T11:07:20;5.92;;;3.60;;
13439;SDS011;6792;57.698;11.946;2023-09-18T11:09:50;5.87;;;3.33;;
13439;SDS011;6792;57.698;11.946;2023-09-18T11:12:20;4.70;;;3.05;;
13439;SDS011;6792;57.698;11.946;2023-09-18T11:14:56;5.17;;;3.42;;
13439;SDS011;6792;57.698;11.946;2023-09-18T11:17:30;3.72;;;3.05;;
13439;SDS011;6792;57.698;11.946;2023-09-18T11:20:08;3.55;;;3.15;;
13439;SDS011;6792;57.698;11.946;2023-09-18T11:22:39;5.92;;;3.70;;
13439;SDS011;6792;57.698;11.946;2023-09-18T11:28:27;3.85;;;3.52;;
13439;SDS011;6792;57.698;11.946;2023-09-18T11:30:58;3.58;;;3.27;;
13439;SDS011;6792;57.698;11.946;2023-09-18T11:33:35;5.60;;;3.35;;
13439;SDS011;6792;57.698;11.946;2023-09-18T11:36:06;7.75;;;3.62;;
13439;SDS011;6792;57.698;11.946;2023-09-18T11:38:54;5.25;;;3.60;;
13439;SDS011;6792;57.698;11.946;2023-09-18T11:41:26;4.50;;;3.35;;
13439;SDS011;6792;57.698;11.946;2023-09-18T11:47:05;4.22;;;3.30;;
13439;SDS011;6792;57.698;11.946;2023-09-18T11:49:39;4.90;;;3.33;;
13439;SDS011;6792;57.698;11.946;2023-09-18T11:52:10;7.35;;;3.67;;
13439;SDS011;6792;57.698;11.946;2023-09-18T11:54:40;4.42;;;3.90;;
13439;SDS011;6792;57.698;11.946;2023-09-18T11:57:10;5.83;;;3.83;;
13439;SDS011;6792;57.698;11.946;2023-09-18T11:59:40;5.00;;;3.50;;
13439;SDS011;6792;57.698;11.946;2023-09-18T12:02:12;5.22;;;3.47;;
13439;SDS011;6792;57.698;11.946;2023-09-18T12:04:44;4.70;;;4.03;;
13439;SDS011;6792;57.698;11.946;2023-09-18T12:07:13;5.45;;;3.98;;
13439;SDS011;6792;57.698;11.946;2023-09-18T12:09:42;8.10;;;4.40;;
13439;SDS011;6792;57.698;11.946;2023-09-18T12:12:11;5.85;;;4.25;;
13439;SDS011;6792;57.698;11.946;2023-09-18T12:14:41;6.50;;;4.00;;
13439;SDS011;6792;57.698;11.946;2023-09-18T12:17:14;5.72;;;4.17;;
13439;SDS011;6792;57.698;11.946;2023-09-18T12:19:51;5.22;;;4.42;;
13439;SDS011;6792;57.698;11.946;2023-09-18T12:22:24;4.95;;;4.17;;
13439;SDS011;6792;57.698;11.946;2023-09-18T12:24:55;6.78;;;4.12;;
13439;SDS011;6792;57.698;11.946;2023-09-18T12:27:38;4.60;;;4.10;;
13439;SDS011;6792;57.698;11.946;2023-09-18T12:30:08;7.60;;;5.00;;
13439;SDS011;6792;57.698;11.946;2023-09-18T12:32:40;5.42;;;4.47;;
13439;SDS011;6792;57.698;11.946;2023-09-18T12:35:13;5.40;;;4.30;;
13439;SDS011;6792;57.698;11.946;2023-09-18T12:37:41;7.47;;;5.03;;
13439;SDS011;6792;57.698;11.946;2023-09-18T12:40:21;8.13;;;5.33;;
13439;SDS011;6792;57.698;11.946;2023-09-18T12:42:50;12.05;;;6.00;;
13439;SDS011;6792;57.698;11.946;2023-09-18T12:45:31;7.20;;;4.90;;
13439;SDS011;6792;57.698;11.946;2023-09-18T12:48:01;8.98;;;5.30;;
13439;SDS011;6792;57.698;11.946;2023-09-18T12:50:31;7.28;;;5.25;;
13439;SDS011;6792;57.698;11.946;2023-09-18T12:53:10;6.30;;;5.05;;
13439;SDS011;6792;57.698;11.946;2023-09-18T12:55:40;7.45;;;4.90;;
13439;SDS011;6792;57.698;11.946;2023-09-18T12:58:13;6.95;;;5.55;;
13439;SDS011;6792;57.698;11.946;2023-09-18T13:00:47;7.62;;;5.03;;
13439;SDS011;6792;57.698;11.946;2023-09-18T13:03:17;6.00;;;5.28;;
13439;SDS011;6792;57.698;11.946;2023-09-18T13:05:46;8.03;;;5.47;;
13439;SDS011;6792;57.698;11.946;2023-09-18T13:08:21;7.55;;;5.80;;
13439;SDS011;6792;57.698;11.946;2023-09-18T13:10:50;7.42;;;5.30;;
13439;SDS011;6792;57.698;11.946;2023-09-18T13:13:20;6.62;;;4.85;;
13439;SDS011;6792;57.698;11.946;2023-09-18T13:15:51;6.58;;;5.55;;
13439;SDS011;6792;57.698;11.946;2023-09-18T13:18:23;6.20;;;5.60;;
13439;SDS011;6792;57.698;11.946;2023-09-18T13:20:52;6.78;;;5.35;;
13439;SDS011;6792;57.698;11.946;2023-09-18T13:23:28;7.33;;;5.03;;
13439;SDS011;6792;57.698;11.946;2023-09-18T13:26:01;6.47;;;4.83;;
13439;SDS011;6792;57.698;11.946;2023-09-18T13:28:31;7.03;;;5.45;;
13439;SDS011;6792;57.698;11.946;2023-09-18T13:31:13;11.05;;;5.58;;
13439;SDS011;6792;57.698;11.946;2023-09-18T13:33:42;7.70;;;5.22;;
13439;SDS011;6792;57.698;11.946;2023-09-18T13:36:11;7.37;;;6.37;;
13439;SDS011;6792;57.698;11.946;2023-09-18T13:38:41;9.13;;;5.67;;
13439;SDS011;6792;57.698;11.946;2023-09-18T13:41:14;5.62;;;4.95;;
13439;SDS011;6792;57.698;11.946;2023-09-18T13:43:43;8.98;;;6.08;;
13439;SDS011;6792;57.698;11.946;2023-09-18T13:46:13;8.50;;;5.80;;
13439;SDS011;6792;57.698;11.946;2023-09-18T13:48:42;6.80;;;5.80;;
13439;SDS011;6792;57.698;11.946;2023-09-18T13:51:12;9.03;;;6.15;;
13439;SDS011;6792;57.698;11.946;2023-09-18T13:53:41;6.55;;;5.78;;
13439;SDS011;6792;57.698;11.946;2023-09-18T13:56:11;9.25;;;5.78;;
13439;SDS011;6792;57.698;11.946;2023-09-18T13:58:40;7.67;;;6.25;;
13439;SDS011;6792;57.698;11.946;2023-09-18T14:01:10;7.87;;;5.65;;
13439;SDS011;6792;57.698;11.946;2023-09-18T14:03:41;11.25;;;5.60;;
13439;SDS011;6792;57.698;11.946;2023-09-18T14:06:12;6.92;;;5.65;;
13439;SDS011;6792;57.698;11.946;2023-09-18T14:08:47;7.47;;;5.67;;
13439;SDS011;6792;57.698;11.946;2023-09-18T14:11:16;8.18;;;5.92;;
13439;SDS011;6792;57.698;11.946;2023-09-18T14:13:47;7.50;;;5.80;;
13439;SDS011;6792;57.698;11.946;2023-09-18T14:16:17;8.23;;;5.90;;
13439;SDS011;6792;57.698;11.946;2023-09-18T14:18:46;13.10;;;6.70;;
13439;SDS011;6792;57.698;11.946;2023-09-18T14:21:15;8.28;;;5.45;;
13439;SDS011;6792;57.698;11.946;2023-09-18T14:23:44;6.47;;;5.83;;
13439;SDS011;6792;57.698;11.946;2023-09-18T14:26:13;8.93;;;6.62;;
13439;SDS011;6792;57.698;11.946;2023-09-18T14:28:43;7.78;;;6.35;;
13439;SDS011;6792;57.698;11.946;2023-09-18T14:31:13;8.10;;;5.90;;
13439;SDS011;6792;57.698;11.946;2023-09-18T14:33:42;6.78;;;5.60;;
13439;SDS011;6792;57.698;11.946;2023-09-18T14:36:13;10.50;;;6.08;;
13439;SDS011;6792;57.698;11.946;2023-09-18T14:38:47;7.45;;;6.10;;
13439;SDS011;6792;57.698;11.946;2023-09-18T14:41:21;9.70;;;6.42;;
13439;SDS011;6792;57.698;11.946;2023-09-18T14:44:07;7.35;;;6.47;;
13439;SDS011;6792;57.698;11.946;2023-09-18T14:46:43;5.87;;;5.03;;
13439;SDS011;6792;57.698;11.946;2023-09-18T14:49:13;8.58;;;6.22;;
13439;SDS011;6792;57.698;11.946;2023-09-18T14:51:42;7.85;;;5.70;;
13439;SDS011;6792;57.698;11.946;2023-09-18T14:54:13;5.90;;;5.33;;
13439;SDS011;6792;57.698;11.946;2023-09-18T14:59:40;8.55;;;5.67;;
13439;SDS011;6792;57.698;11.946;2023-09-18T15:02:12;7.22;;;5.67;;
13439;SDS011;6792;57.698;11.946;2023-09-18T15:04:43;7.20;;;5.97;;
13439;SDS011;6792;57.698;11.946;2023-09-18T15:07:14;8.28;;;5.97;;
13439;SDS011;6792;57.698;11.946;2023-09-18T15:09:45;8.95;;;5.25;;
13439;SDS011;6792;57.698;11.946;2023-09-18T15:12:14;8.18;;;6.15;;
13439;SDS011;6792;57.698;11.946;2023-09-18T15:14:43;8.05;;;5.70;;
13439;SDS011;6792;57.698;11.946;2023-09-18T15:17:13;6.72;;;5.85;;
13439;SDS011;6792;57.698;11.946;2023-09-18T15:19:49;7.22;;;5.75;;
13439;SDS011;6792;57.698;11.946;2023-09-18T15:22:23;7.80;;;6.45;;
13439;SDS011;6792;57.698;11.946;2023-09-18T15:24:52;8.05;;;5.78;;
13439;SDS011;6792;57.698;11.946;2023-09-18T15:27:22;8.55;;;5.35;;